KNFL/NFL METAR and TAF weather

Enter ICAO airport designator
Station Type Date Time Source
KNFL METAR 2020/04/07 16:56 UTC NOAA

KNFL 071656Z VRB04KT 10SM FEW030 SCT060 SCT100 BKN180 08/05 A3008 RMK AO2 SLP152 T00830050


Station Type Date Time Source
KNFL Decoded METAR 2020/04/07 16:56 UTC NOAA

FALLON NAVAL AIR STATION, NV, United States (KNFL) 39-26N 118-41W 1199M
Apr 07, 2020 - 12:56 PM EDT / 2020.04.07 1656 UTC
Wind: Variable at 5 MPH (4 KT):0
Visibility: 10 mile(s):0
Sky conditions: mostly cloudy
Temperature: 46.9 F (8.3 C)
Dew Point: 41.0 F (5.0 C)
Relative Humidity: 79%
Pressure (altimeter): 30.08 in. Hg (1018 hPa)
ob: KNFL 071656Z VRB04KT 10SM FEW030 SCT060 SCT100 BKN180 08/05 A3008 RMK AO2 SLP152 T00830050
cycle: 17

Station Type Date Time Source
KNFL TAF 2020/04/07 15:09 UTC NOAA

TAF KNFL 0715/0815 VRB06KT 9999 VCSH FEW020 SCT050 BKN100 BKN180 QNH3000INS
FM071900 14007KT 9999 FEW030 SCT100 SCT250 QNH2995INS
FM080000 VRB06KT 9999 FEW060 SCT100 QNH2997INS
TEMPO 0800/0806 9000 VCSH FEW030 SCT060 BKN100 T15/0722Z T02/0812Z FS30003

Example: see airport list